Time;durP1;ratioP1;P1;durP2;ratioP2;P2;SDS_P1;SDS_P2;PMS_P1;PMS_P2;Temp;Humidity;BMP_temperature;BMP_pressure;BME280_temperature;BME280_humidity;BME280_pressure;Samples;Min_cycle;Max_cycle;Signal;HPM_P1;HPM_P2
2022/01/26 00:10:08;;;;;;;31.55;9.45;;;4.20;1.00;;;;;;10248003;28;84944;-42
2022/01/26 00:15:10;;;;;;;36.33;10.35;;;4.10;1.00;;;;;;10247478;28;84873;-43
2022/01/26 00:41:31;;;;;;;30.98;8.52;;;4.10;1.00;;;;;;10246098;28;84053;-43
2022/01/26 00:46:33;;;;;;;35.70;10.75;;;4.00;1.00;;;;;;10245316;28;84215;-45
2022/01/26 00:51:34;;;;;;;28.33;9.50;;;3.90;1.00;;;;;;10245644;28;84155;-43
2022/01/26 00:56:35;;;;;;;38.65;10.65;;;4.00;1.00;;;;;;10243166;28;86045;-45
2022/01/26 01:01:36;;;;;;;39.47;11.95;;;4.00;1.00;;;;;;10243343;28;87089;-43
2022/01/26 01:06:52;;;;;;;41.67;12.80;;;4.10;1.00;;;;;;10244598;28;85006;-42
2022/01/26 01:11:56;;;;;;;42.72;11.88;;;4.10;1.00;;;;;;10245048;28;84222;-46
2022/01/26 01:17:01;;;;;;;36.72;11.82;;;4.10;1.00;;;;;;10249069;28;85129;-43
2022/01/26 01:28:09;;;;;;;42.03;12.23;;;4.10;1.00;;;;;;10285060;28;84758;-44
2022/01/26 01:33:05;;;;;;;61.38;15.55;;;4.00;1.00;;;;;;10281896;28;85350;-43
2022/01/26 01:38:09;;;;;;;42.60;14.32;;;4.00;1.00;;;;;;10284653;28;86140;-43
2022/01/26 01:43:10;;;;;;;51.70;15.75;;;4.00;1.00;;;;;;10291647;28;84220;-44
2022/01/26 01:48:15;;;;;;;53.58;14.25;;;4.10;1.00;;;;;;10291369;28;84948;-43
2022/01/26 01:53:17;;;;;;;40.20;12.15;;;4.00;1.00;;;;;;10290820;28;84039;-44
2022/01/26 01:58:19;;;;;;;57.58;14.60;;;4.00;1.00;;;;;;10289738;28;84793;-42
2022/01/26 02:03:19;;;;;;;40.58;12.68;;;4.00;1.00;;;;;;10291835;28;85279;-44
2022/01/26 02:08:20;;;;;;;52.38;13.25;;;4.10;1.00;;;;;;10290004;28;84341;-42
2022/01/26 02:13:28;;;;;;;46.53;14.52;;;4.10;1.00;;;;;;10290988;28;85281;-44
2022/01/26 03:05:45;;;;;;;57.38;14.98;;;3.70;1.00;;;;;;10294407;22;84886;-51
2022/01/26 03:10:53;;;;;;;55.33;16.40;;;3.80;1.00;;;;;;10249774;28;84902;-52
2022/01/26 03:16:03;;;;;;;43.70;12.38;;;3.70;1.00;;;;;;10249362;28;84202;-52
2022/01/26 03:21:07;;;;;;;53.83;14.30;;;3.70;1.00;;;;;;10246372;28;84848;-53
2022/01/26 03:36:44;;;;;;;59.28;16.25;;;3.70;1.00;;;;;;10260573;28;84031;-54
2022/01/26 03:41:49;;;;;;;60.58;15.68;;;3.70;1.00;;;;;;10285207;28;84722;-51
2022/01/26 03:46:50;;;;;;;47.33;13.85;;;3.70;1.00;;;;;;10267331;28;85278;-53
2022/01/26 03:51:51;;;;;;;48.97;14.00;;;3.70;1.00;;;;;;10263125;28;84198;-52
2022/01/26 03:56:51;;;;;;;48.50;13.60;;;3.70;1.00;;;;;;10253066;28;84215;-55
2022/01/26 04:01:52;;;;;;;41.45;13.02;;;3.70;1.00;;;;;;10249901;28;84136;-54
2022/01/26 04:06:54;;;;;;;41.30;12.77;;;3.60;1.00;;;;;;10245314;28;84357;-49
2022/01/26 04:11:54;;;;;;;43.38;12.23;;;3.60;1.00;;;;;;10245747;28;85047;-51
2022/01/26 04:16:55;;;;;;;53.22;15.80;;;3.60;1.00;;;;;;10244817;28;84453;-50
2022/01/26 04:27:17;;;;;;;54.47;13.38;;;3.50;1.00;;;;;;10244636;28;85770;-51
2022/01/26 04:32:18;;;;;;;42.15;11.90;;;3.50;1.00;;;;;;10245561;28;84799;-55
2022/01/26 04:43:16;;;;;;;46.30;12.85;;;3.60;1.00;;;;;;10245250;28;84718;-57
2022/01/26 04:47:46;;;;;;;45.35;10.75;;;3.50;1.00;;;;;;10236838;28;84078;-53
2022/01/26 04:52:47;;;;;;;44.08;14.18;;;3.50;1.00;;;;;;10244740;28;84900;-52
2022/01/26 04:57:47;;;;;;;41.33;13.77;;;3.40;1.00;;;;;;10244464;28;84795;-51
2022/01/26 05:02:48;;;;;;;38.92;12.60;;;3.40;1.00;;;;;;10244198;28;84957;-57
2022/01/26 05:07:49;;;;;;;47.17;13.55;;;3.30;1.00;;;;;;10243571;28;84842;-53
2022/01/26 05:12:49;;;;;;;45.22;12.50;;;3.20;1.00;;;;;;10244920;28;86835;-52
2022/01/26 05:17:51;;;;;;;42.53;14.07;;;3.10;1.00;;;;;;10235160;28;85979;-51
2022/01/26 05:22:51;;;;;;;45.25;13.00;;;3.10;1.00;;;;;;10251108;28;85221;-54
2022/01/26 05:27:52;;;;;;;47.85;14.20;;;3.10;1.00;;;;;;10249673;28;84429;-52
2022/01/26 05:32:53;;;;;;;40.65;13.13;;;3.10;1.00;;;;;;10251170;28;84920;-51
2022/01/26 05:37:54;;;;;;;45.97;12.25;;;3.20;1.00;;;;;;10248065;28;85035;-52
2022/01/26 05:42:55;;;;;;;40.92;14.10;;;3.30;1.00;;;;;;10249421;28;85096;-55
2022/01/26 05:47:56;;;;;;;42.85;12.52;;;3.30;1.00;;;;;;10249640;28;84092;-52
2022/01/26 05:52:56;;;;;;;53.10;14.38;;;3.40;1.00;;;;;;10249610;28;84163;-52
2022/01/26 05:57:57;;;;;;;49.92;13.95;;;3.20;1.00;;;;;;10237934;28;86912;-54
2022/01/26 06:02:57;;;;;;;48.78;14.13;;;3.30;1.00;;;;;;10266062;28;84142;-52
2022/01/26 06:07:58;;;;;;;59.72;16.65;;;3.40;1.00;;;;;;10279670;28;84119;-56
2022/01/26 06:12:59;;;;;;;62.72;15.75;;;3.30;1.00;;;;;;10281736;28;84220;-53
2022/01/26 06:17:59;;;;;;;44.58;13.30;;;3.30;1.00;;;;;;10249324;28;84897;-53
2022/01/26 06:23:02;;;;;;;47.83;13.88;;;3.30;1.00;;;;;;10247643;28;85614;-53
2022/01/26 06:28:07;;;;;;;56.33;14.85;;;3.30;1.00;;;;;;10247098;28;84863;-51
2022/01/26 06:33:08;;;;;;;59.50;15.40;;;3.30;1.00;;;;;;10244027;28;84958;-59
2022/01/26 06:38:09;;;;;;;48.97;15.77;;;3.20;1.00;;;;;;10255980;28;84084;-58
2022/01/26 06:43:14;;;;;;;48.72;13.30;;;3.00;1.00;;;;;;10248722;28;84766;-57
2022/01/26 06:53:27;;;;;;;47.03;13.85;;;2.90;1.00;;;;;;10257939;28;84929;-60
2022/01/26 06:58:28;;;;;;;46.13;13.20;;;2.80;1.00;;;;;;10250888;28;84175;-57
2022/01/26 07:03:29;;;;;;;47.72;13.45;;;2.80;1.00;;;;;;10279011;28;84941;-50
2022/01/26 07:08:29;;;;;;;41.08;11.82;;;2.90;1.00;;;;;;10269119;28;86960;-52
2022/01/26 07:13:30;;;;;;;53.78;12.85;;;3.10;1.00;;;;;;10288832;28;84959;-50
2022/01/26 07:23:50;;;;;;;46.22;13.00;;;3.10;1.00;;;;;;10270860;28;84278;-61
2022/01/26 07:28:52;;;;;;;49.08;14.15;;;3.20;1.00;;;;;;10278659;28;85138;-57
2022/01/26 07:33:55;;;;;;;43.35;13.23;;;3.30;1.00;;;;;;10289825;28;84090;-58
2022/01/26 07:39:05;;;;;;;45.20;12.88;;;3.30;1.00;;;;;;10287857;28;84734;-55
2022/01/26 07:44:06;;;;;;;36.78;12.25;;;3.30;1.00;;;;;;10284307;28;84924;-52
2022/01/26 07:49:07;;;;;;;48.83;12.80;;;3.30;1.00;;;;;;10244516;28;87265;-50
2022/01/26 07:54:08;;;;;;;45.70;14.27;;;3.30;1.00;;;;;;10244757;28;84173;-60
2022/01/26 07:59:09;;;;;;;45.20;11.65;;;3.30;1.00;;;;;;10247004;28;84225;-63
2022/01/26 08:04:10;;;;;;;55.05;15.00;;;3.30;1.00;;;;;;10246426;28;86383;-61
2022/01/26 08:09:11;;;;;;;43.47;14.20;;;3.30;1.00;;;;;;10246022;28;85078;-52
2022/01/26 08:14:12;;;;;;;54.92;15.45;;;3.20;1.00;;;;;;10246009;28;84178;-66
2022/01/26 08:19:14;;;;;;;49.70;14.68;;;3.20;1.00;;;;;;10246415;28;84869;-64
2022/01/26 08:24:15;;;;;;;47.50;13.43;;;3.20;1.00;;;;;;10246213;28;84097;-67
2022/01/26 08:29:27;;;;;;;41.10;12.00;;;3.30;1.00;;;;;;10244486;28;84911;-64
2022/01/26 08:34:27;;;;;;;50.20;15.45;;;3.40;1.00;;;;;;10246226;28;84351;-58
2022/01/26 08:39:28;;;;;;;49.30;13.65;;;3.50;1.00;;;;;;10243310;28;85834;-66
2022/01/26 08:44:29;;;;;;;47.47;13.85;;;3.50;1.00;;;;;;10244664;28;84767;-68
2022/01/26 08:49:30;;;;;;;46.72;15.90;;;3.40;1.00;;;;;;10249274;28;86694;-63
2022/01/26 08:54:31;;;;;;;60.45;18.00;;;3.50;1.00;;;;;;10259686;28;84812;-64
2022/01/26 08:59:32;;;;;;;56.90;14.07;;;3.50;1.00;;;;;;10259936;28;83975;-66
2022/01/26 09:04:32;;;;;;;57.03;15.13;;;3.50;1.00;;;;;;10257382;28;85256;-58
2022/01/26 09:09:42;;;;;;;50.38;14.40;;;3.50;1.00;;;;;;10272686;23;85551;-60
2022/01/26 09:14:44;;;;;;;59.38;17.92;;;3.50;1.00;;;;;;10257935;28;84167;-51
2022/01/26 09:19:46;;;;;;;51.45;14.68;;;3.30;1.00;;;;;;10232014;28;84103;-60
2022/01/26 09:24:46;;;;;;;55.47;14.95;;;3.40;1.00;;;;;;10219141;28;85199;-56
2022/01/26 09:29:47;;;;;;;56.13;16.23;;;3.40;1.00;;;;;;10218360;28;84883;-61
2022/01/26 09:34:48;;;;;;;64.75;14.88;;;3.40;1.00;;;;;;10218060;28;84655;-61
2022/01/26 09:39:49;;;;;;;53.85;15.38;;;3.40;1.00;;;;;;10217123;28;85666;-56
2022/01/26 09:44:49;;;;;;;50.47;15.90;;;3.40;1.00;;;;;;10218025;28;84901;-61
2022/01/26 09:49:50;;;;;;;56.03;16.23;;;3.30;1.00;;;;;;10217040;28;84220;-63
2022/01/26 09:54:51;;;;;;;54.88;16.75;;;3.40;1.00;;;;;;10217576;28;84096;-57
2022/01/26 09:59:52;;;;;;;63.08;17.30;;;3.30;1.00;;;;;;10213030;28;84083;-53
2022/01/26 10:05:04;;;;;;;76.80;17.90;;;3.40;1.00;;;;;;10210789;28;84097;-61
2022/01/26 10:15:57;;;;;;;54.38;15.52;;;3.50;1.00;;;;;;10207710;28;85017;-55
2022/01/26 10:20:50;;;;;;;65.50;19.58;;;3.60;1.00;;;;;;10208254;28;84295;-64
2022/01/26 10:26:10;;;;;;;64.55;17.58;;;3.60;1.00;;;;;;10214553;28;84248;-64
2022/01/26 10:31:27;;;;;;;56.38;15.90;;;3.70;1.00;;;;;;10214106;28;84157;-66
2022/01/26 10:36:36;;;;;;;69.93;16.77;;;3.80;1.00;;;;;;10212339;28;85125;-64
2022/01/26 10:41:43;;;;;;;69.47;17.20;;;3.70;1.00;;;;;;10210720;28;87001;-57
2022/01/26 10:46:44;;;;;;;61.97;17.98;;;3.80;1.00;;;;;;10210267;28;84213;-66
2022/01/26 10:56:49;;;;;;;69.68;18.80;;;4.00;1.00;;;;;;10208795;28;84225;-57
2022/01/26 11:01:49;;;;;;;68.55;18.25;;;4.00;1.00;;;;;;10209225;28;84224;-66
2022/01/26 11:06:53;;;;;;;66.35;19.70;;;4.10;1.00;;;;;;10211634;28;84988;-64
2022/01/26 11:12:06;;;;;;;58.55;15.88;;;4.10;1.00;;;;;;10172099;28;84090;-65
2022/01/26 11:17:08;;;;;;;58.10;19.15;;;4.00;1.00;;;;;;10167395;28;87497;-69
2022/01/26 11:22:10;;;;;;;56.55;14.98;;;4.00;1.00;;;;;;10175231;28;84981;-65
2022/01/26 11:27:12;;;;;;;66.45;17.25;;;4.00;1.00;;;;;;10205440;28;85988;-66
2022/01/26 11:32:33;;;;;;;56.03;17.23;;;4.00;3.80;;;;;;10207177;28;84933;-62
2022/01/26 11:37:46;;;;;;;67.40;17.95;;;4.00;19.10;;;;;;10205604;28;84841;-57
2022/01/26 11:48:03;;;;;;;66.55;18.08;;;4.00;80.80;;;;;;10204623;28;86917;-66
2022/01/26 11:53:09;;;;;;;69.50;17.35;;;4.00;77.20;;;;;;10203940;28;84625;-68
2022/01/26 11:58:35;;;;;;;57.47;15.23;;;4.00;99.90;;;;;;10203156;28;84869;-66
2022/01/26 12:03:43;;;;;;;66.35;15.25;;;4.00;85.10;;;;;;10204918;28;84009;-64
2022/01/26 12:08:45;;;;;;;56.33;18.40;;;4.00;99.90;;;;;;10205828;28;85853;-63
2022/01/26 12:13:50;;;;;;;60.28;16.85;;;4.00;99.90;;;;;;10205254;28;84803;-68
2022/01/26 12:19:27;;;;;;;62.30;16.33;;;3.90;99.90;;;;;;10202828;28;84920;-67
2022/01/26 12:46:03;;;;;;;58.47;18.48;;;4.30;99.90;;;;;;10165690;28;84874;-66
2022/01/26 12:51:06;;;;;;;62.58;18.27;;;4.30;99.90;;;;;;10166510;28;84056;-64
2022/01/26 12:56:10;;;;;;;56.53;17.17;;;4.30;99.90;;;;;;10190167;28;85261;-62
2022/01/26 13:01:15;;;;;;;57.38;14.63;;;4.20;99.90;;;;;;10188586;28;84865;-61
2022/01/26 13:06:29;;;;;;;63.97;16.42;;;4.10;99.90;;;;;;10188809;28;86013;-55
2022/01/26 13:11:35;;;;;;;52.45;15.25;;;4.20;99.90;;;;;;10207621;28;84142;-56
2022/01/26 13:16:38;;;;;;;61.83;16.83;;;4.30;99.90;;;;;;10204946;28;85021;-59
2022/01/26 13:21:59;;;;;;;60.40;15.85;;;4.30;99.90;;;;;;10201358;28;84946;-55
2022/01/26 13:53:15;;;;;;;65.68;17.88;;;4.30;99.90;;;;;;10210429;28;84776;-63
2022/01/26 14:03:21;;;;;;;65.32;17.70;;;4.40;99.90;;;;;;10211155;28;84309;-61
2022/01/26 14:08:23;;;;;;;46.85;15.32;;;4.40;99.90;;;;;;10208327;28;86698;-63
2022/01/26 14:13:25;;;;;;;45.13;14.52;;;4.40;99.90;;;;;;10177474;28;85342;-61
2022/01/26 14:28:33;;;;;;;53.00;15.73;;;4.50;96.50;;;;;;10169247;28;84019;-63
2022/01/26 14:54:48;;;;;;;56.55;14.88;;;4.60;99.90;;;;;;10205532;28;84294;-53
2022/01/26 15:53:07;;;;;;;42.30;13.45;;;4.70;99.90;;;;;;10247053;28;85674;-62
2022/01/26 15:58:20;;;;;;;48.70;13.45;;;4.60;99.90;;;;;;10246915;28;84929;-62
2022/01/26 17:12:09;;;;;;;44.42;13.82;;;4.50;99.90;;;;;;10287464;28;84727;-58
2022/01/26 18:04:47;;;;;;;48.45;14.20;;;4.50;99.90;;;;;;10293089;28;85006;-52
2022/01/26 18:52:09;;;;;;;54.83;14.73;;;4.20;99.90;;;;;;10296464;28;84146;-51
2022/01/26 18:57:10;;;;;;;41.80;13.82;;;4.20;99.90;;;;;;10330085;28;84481;-53
2022/01/26 19:02:13;;;;;;;52.75;14.35;;;4.20;99.90;;;;;;10326390;28;84783;-56
2022/01/26 19:07:17;;;;;;;54.40;15.50;;;4.30;99.90;;;;;;10284422;28;83985;-51
2022/01/26 19:12:19;;;;;;;50.67;15.50;;;4.30;99.90;;;;;;10283422;28;84874;-54
2022/01/26 19:17:31;;;;;;;45.80;13.13;;;4.30;99.90;;;;;;10287312;28;84220;-54
2022/01/26 19:22:49;;;;;;;44.13;13.82;;;4.20;99.90;;;;;;10260061;28;84278;-55
2022/01/26 19:28:28;;;;;;;53.53;15.20;;;4.10;99.90;;;;;;10277515;28;85004;-55
2022/01/26 19:53:59;;;;;;;41.92;14.10;;;4.10;99.90;;;;;;10272018;28;84388;-53
2022/01/26 19:59:00;;;;;;;50.45;15.35;;;4.10;99.90;;;;;;10265322;28;84336;-52
2022/01/26 20:04:00;;;;;;;41.28;12.73;;;4.10;99.90;;;;;;10262280;28;85027;-53
2022/01/26 20:09:11;;;;;;;48.15;13.13;;;4.10;99.90;;;;;;10270742;28;84607;-52
2022/01/26 20:14:14;;;;;;;43.60;13.52;;;4.00;99.90;;;;;;10281225;28;84930;-52
2022/01/26 20:19:15;;;;;;;44.60;13.43;;;4.00;99.90;;;;;;10276116;28;84218;-55
2022/01/26 20:24:16;;;;;;;42.35;12.05;;;4.00;99.90;;;;;;10272833;28;84979;-56
2022/01/26 20:29:18;;;;;;;45.50;13.45;;;4.10;99.90;;;;;;10269321;28;84302;-56
2022/01/26 20:34:19;;;;;;;45.97;14.88;;;4.00;99.90;;;;;;10263470;28;84961;-53
2022/01/26 20:39:20;;;;;;;45.88;13.00;;;4.10;99.90;;;;;;10288735;28;85989;-54
2022/01/26 20:44:20;;;;;;;43.45;14.13;;;4.10;99.90;;;;;;10270465;28;85304;-53
2022/01/26 20:49:21;;;;;;;48.75;15.45;;;4.10;99.90;;;;;;10287496;28;85002;-55
2022/01/26 20:54:22;;;;;;;53.25;14.35;;;4.20;99.90;;;;;;10281483;28;84787;-53
2022/01/26 20:59:23;;;;;;;42.58;13.80;;;4.20;99.90;;;;;;10279433;28;85368;-53
2022/01/26 21:04:24;;;;;;;51.92;15.95;;;4.20;99.90;;;;;;10283251;28;85033;-50
2022/01/26 21:09:25;;;;;;;43.70;11.45;;;4.20;99.90;;;;;;10280732;22;85997;-46
2022/01/26 21:14:25;;;;;;;50.00;13.20;;;4.10;99.90;;;;;;10245330;28;84348;-46
2022/01/26 21:19:31;;;;;;;41.55;10.88;;;4.00;99.90;;;;;;10243346;28;86808;-48
2022/01/26 21:24:32;;;;;;;45.72;13.95;;;4.10;99.90;;;;;;10245218;28;84264;-46
2022/01/26 21:29:33;;;;;;;46.95;13.50;;;4.10;99.90;;;;;;10242321;28;84989;-44
2022/01/26 21:34:37;;;;;;;49.47;12.55;;;4.00;99.90;;;;;;10242853;28;84238;-44
2022/01/26 21:39:38;;;;;;;44.70;12.63;;;4.00;99.90;;;;;;10242177;28;84991;-43
2022/01/26 21:44:38;;;;;;;37.28;11.65;;;4.00;99.90;;;;;;10241444;28;85220;-43
2022/01/26 21:49:40;;;;;;;34.45;12.20;;;4.10;99.90;;;;;;10243493;28;84901;-46
2022/01/26 21:54:41;;;;;;;35.10;11.23;;;4.10;99.90;;;;;;10244805;28;85622;-44
2022/01/26 21:59:42;;;;;;;37.05;10.82;;;4.20;99.90;;;;;;10250289;28;85023;-49
2022/01/26 22:04:44;;;;;;;46.45;12.93;;;4.10;99.90;;;;;;10250225;28;84693;-43
2022/01/26 22:09:45;;;;;;;33.97;11.35;;;4.10;99.90;;;;;;10266220;28;86876;-50
2022/01/26 22:14:46;;;;;;;40.60;11.70;;;4.00;99.90;;;;;;10289497;28;87278;-46
2022/01/26 22:19:46;;;;;;;40.75;12.07;;;3.90;99.90;;;;;;10290247;28;84788;-45
2022/01/26 22:24:47;;;;;;;31.08;9.05;;;4.00;99.90;;;;;;10289583;28;84861;-46
2022/01/26 22:29:48;;;;;;;29.52;9.57;;;4.00;99.90;;;;;;10288847;28;84977;-44
2022/01/26 22:34:48;;;;;;;35.03;11.77;;;4.00;99.90;;;;;;10292443;28;84082;-44
2022/01/26 22:39:49;;;;;;;33.67;10.20;;;3.90;99.90;;;;;;10291581;28;84087;-44
2022/01/26 22:44:50;;;;;;;34.10;11.05;;;4.10;99.90;;;;;;10290032;28;84963;-45
2022/01/26 22:49:50;;;;;;;33.53;11.32;;;4.00;99.90;;;;;;10291028;28;84854;-44
2022/01/26 22:54:51;;;;;;;37.00;11.55;;;4.10;99.90;;;;;;10276492;28;85016;-44
2022/01/26 22:59:52;;;;;;;44.83;11.98;;;4.10;99.90;;;;;;10288843;28;84901;-43
2022/01/26 23:05:13;;;;;;;31.67;10.40;;;4.10;99.90;;;;;;10288938;28;86338;-46
2022/01/26 23:10:15;;;;;;;34.75;11.05;;;4.10;99.90;;;;;;10286326;28;85076;-44
2022/01/26 23:15:16;;;;;;;35.83;10.00;;;4.10;99.90;;;;;;10289855;28;84731;-48
2022/01/26 23:20:17;;;;;;;34.92;11.48;;;4.00;99.90;;;;;;10287194;28;86047;-48
2022/01/26 23:25:28;;;;;;;38.90;12.40;;;4.00;99.90;;;;;;10289224;28;85046;-47
